createdAt,value
2019-02-04T00:00:48.974Z,50.43
2019-02-04T00:03:20.878Z,65.13
2019-02-04T00:05:50.623Z,60.43
2019-02-04T00:08:20.370Z,66.50
2019-02-04T00:10:50.520Z,57.57
2019-02-04T00:13:20.030Z,59.50
2019-02-04T00:15:49.598Z,64.20
2019-02-04T00:18:19.072Z,62.90
2019-02-04T00:20:48.611Z,62.67
2019-02-04T00:23:18.436Z,61.17
2019-02-04T00:25:47.870Z,63.47
2019-02-04T00:28:17.241Z,57.63
2019-02-04T00:30:46.679Z,63.77
2019-02-04T00:33:16.054Z,53.20
2019-02-04T00:35:45.530Z,57.97
2019-02-04T00:38:15.234Z,54.73
2019-02-04T00:40:44.725Z,57.63
2019-02-04T00:43:14.186Z,53.97
2019-02-04T00:45:43.662Z,53.00
2019-02-04T00:48:13.052Z,57.57
2019-02-04T00:50:42.452Z,60.43
2019-02-04T00:53:11.961Z,62.50
2019-02-04T00:55:41.349Z,60.13
2019-02-04T00:58:10.816Z,53.47
2019-02-04T01:00:41.432Z,55.47
2019-02-04T01:03:11.492Z,54.50
2019-02-04T01:05:40.930Z,56.37
2019-02-04T01:08:10.466Z,57.43
2019-02-04T01:10:39.861Z,57.10
2019-02-04T01:13:09.284Z,49.80
2019-02-04T01:15:38.786Z,49.10
2019-02-04T01:18:08.179Z,51.40
2019-02-04T01:20:38.058Z,50.10
2019-02-04T01:23:07.566Z,46.93
2019-02-04T01:25:37.126Z,40.90
2019-02-04T01:28:06.554Z,49.73
2019-02-04T01:30:36.040Z,43.13
2019-02-04T01:33:05.538Z,42.87
2019-02-04T01:35:34.983Z,50.13
2019-02-04T01:38:04.431Z,45.13
2019-02-04T01:40:33.819Z,41.80
2019-02-04T01:43:03.415Z,40.77
2019-02-04T01:45:32.831Z,44.33
2019-02-04T01:48:02.640Z,36.33
2019-02-04T01:50:32.157Z,45.23
2019-02-04T01:53:01.535Z,35.53
2019-02-04T01:55:31.077Z,38.13
2019-02-04T01:58:00.466Z,46.67
2019-02-04T02:00:32.204Z,43.77
2019-02-04T02:03:01.806Z,38.53
2019-02-04T02:05:31.332Z,39.63
2019-02-04T02:08:00.731Z,42.77
2019-02-04T02:10:30.377Z,44.63
2019-02-04T02:12:59.797Z,35.10
2019-02-04T02:15:29.211Z,32.33
2019-02-04T02:17:58.758Z,42.97
2019-02-04T02:20:29.084Z,38.90
2019-02-04T02:22:58.593Z,38.87
2019-02-04T02:25:28.139Z,37.77
2019-02-04T02:27:57.611Z,37.73
2019-02-04T02:30:29.013Z,36.50
2019-02-04T02:32:58.406Z,38.10
2019-02-04T02:35:27.978Z,32.70
2019-02-04T02:37:57.584Z,37.20
2019-02-04T02:40:31.952Z,34.30
2019-02-04T02:43:01.775Z,31.50
2019-02-04T02:45:31.780Z,38.33
2019-02-04T02:48:01.367Z,35.03
2019-02-04T02:50:31.231Z,40.00
2019-02-04T02:53:00.728Z,34.73
2019-02-04T02:55:30.133Z,35.50
2019-02-04T02:57:59.735Z,30.87
2019-02-04T03:00:29.419Z,28.60
2019-02-04T03:02:58.886Z,30.50
2019-02-04T03:05:28.332Z,29.43
2019-02-04T03:07:57.759Z,30.27
2019-02-04T03:10:29.397Z,28.03
2019-02-04T03:12:58.900Z,33.60
2019-02-04T03:15:28.650Z,30.33
2019-02-04T03:17:58.146Z,26.20
2019-02-04T03:20:27.693Z,34.30
2019-02-04T03:22:57.138Z,32.20
2019-02-04T03:25:26.794Z,26.70
2019-02-04T03:27:57.086Z,24.00
2019-02-04T03:30:29.598Z,26.87
2019-02-04T03:33:00.842Z,25.53
2019-02-04T03:35:30.335Z,32.00
2019-02-04T03:38:00.096Z,26.87
2019-02-04T03:40:31.339Z,28.10
2019-02-04T03:43:01.050Z,23.50
2019-02-04T03:45:30.693Z,27.47
2019-02-04T03:48:06.012Z,27.07
2019-02-04T03:50:31.205Z,27.73
2019-02-04T03:53:00.625Z,25.33
2019-02-04T03:55:30.149Z,26.40
2019-02-04T03:57:59.677Z,28.50
2019-02-04T04:00:31.884Z,28.80
2019-02-04T04:03:01.438Z,23.63
2019-02-04T04:05:30.824Z,24.60
2019-02-04T04:08:00.328Z,24.23
2019-02-04T04:10:29.882Z,26.20
2019-02-04T04:12:59.431Z,28.40
2019-02-04T04:15:29.054Z,27.93
2019-02-04T04:17:58.485Z,35.17
2019-02-04T04:20:28.024Z,28.53
2019-02-04T04:22:57.494Z,26.90
2019-02-04T04:25:28.620Z,28.80
2019-02-04T04:27:58.063Z,30.07
2019-02-04T04:30:29.132Z,24.40
2019-02-04T04:33:00.492Z,25.00
2019-02-04T04:35:29.913Z,27.93
2019-02-04T04:37:59.368Z,27.43
2019-02-04T04:40:28.948Z,26.10
2019-02-04T04:42:58.388Z,23.47
2019-02-04T04:45:27.773Z,25.47
2019-02-04T04:47:57.321Z,24.67
2019-02-04T04:50:26.825Z,23.53
2019-02-04T04:52:56.283Z,25.73
2019-02-04T04:55:26.693Z,17.90
2019-02-04T04:57:56.349Z,21.37
2019-02-04T05:00:28.185Z,20.37
2019-02-04T05:02:57.887Z,21.53
2019-02-04T05:05:27.445Z,19.70
2019-02-04T05:07:56.975Z,21.37
2019-02-04T05:10:26.444Z,20.37
2019-02-04T05:12:55.875Z,18.53
2019-02-04T05:15:26.917Z,20.03
2019-02-04T05:17:56.450Z,20.23
2019-02-04T05:20:25.953Z,20.33
2019-02-04T05:22:55.333Z,20.00
2019-02-04T05:25:24.797Z,20.53
2019-02-04T05:27:54.615Z,21.20
2019-02-04T05:30:25.311Z,20.43
2019-02-04T05:32:54.676Z,16.30
2019-02-04T05:35:24.145Z,19.30
2019-02-04T05:37:53.642Z,17.10
2019-02-04T05:40:23.094Z,17.33
2019-02-04T05:42:52.493Z,17.60
2019-02-04T05:45:22.012Z,18.63
2019-02-04T05:47:51.475Z,20.17
2019-02-04T05:50:21.181Z,21.40
2019-02-04T05:52:50.633Z,19.50
2019-02-04T05:55:21.890Z,17.27
2019-02-04T05:57:51.345Z,17.87
2019-02-04T06:00:24.883Z,24.50
2019-02-04T06:02:54.273Z,24.03
2019-02-04T06:05:23.755Z,24.27
2019-02-04T06:07:53.157Z,23.63
2019-02-04T06:10:22.550Z,22.03
2019-02-04T06:12:51.961Z,25.90
2019-02-04T06:15:21.331Z,19.67
2019-02-04T06:17:50.931Z,19.63
2019-02-04T06:20:24.697Z,24.63
2019-02-04T06:22:54.681Z,15.53
2019-02-04T06:25:24.266Z,18.47
2019-02-04T06:27:53.798Z,20.20
2019-02-04T06:30:23.199Z,22.00
2019-02-04T06:32:52.679Z,15.57
2019-02-04T06:35:22.123Z,15.27
2019-02-04T06:37:51.570Z,20.57
2019-02-04T06:40:21.003Z,16.07
2019-02-04T06:42:50.667Z,13.23
2019-02-04T06:45:20.147Z,15.40
2019-02-04T06:47:49.657Z,16.50
2019-02-04T06:50:20.165Z,17.63
2019-02-04T06:52:49.575Z,16.37
2019-02-04T06:55:30.512Z,15.73
2019-02-04T06:57:59.995Z,14.20
2019-02-04T07:00:29.463Z,17.53
2019-02-04T07:02:59.233Z,12.53
2019-02-04T07:05:28.766Z,18.20
2019-02-04T07:07:58.294Z,17.63
2019-02-04T07:10:28.222Z,15.07
2019-02-04T07:12:57.684Z,16.10
2019-02-04T07:15:27.167Z,15.60
2019-02-04T07:18:01.460Z,19.13
2019-02-04T07:20:28.003Z,14.13
2019-02-04T07:22:57.583Z,17.67
2019-02-04T07:25:27.169Z,15.47
2019-02-04T07:27:56.621Z,13.00
2019-02-04T07:30:27.728Z,18.17
2019-02-04T07:32:57.404Z,13.87
2019-02-04T07:35:26.911Z,17.03
2019-02-04T07:37:56.361Z,15.23
2019-02-04T07:40:28.581Z,21.43
2019-02-04T07:42:58.237Z,17.87
2019-02-04T07:45:27.785Z,15.20
2019-02-04T07:47:57.331Z,17.87
2019-02-04T07:50:27.758Z,19.67
2019-02-04T07:52:57.264Z,17.90
2019-02-04T07:55:26.739Z,14.47
2019-02-04T07:57:57.302Z,16.00
2019-02-04T08:00:29.974Z,16.77
2019-02-04T08:02:59.889Z,22.73
2019-02-04T08:05:29.894Z,18.60
2019-02-04T08:07:59.355Z,21.03
2019-02-04T08:10:28.803Z,16.37
2019-02-04T08:13:01.618Z,22.50
2019-02-04T08:15:32.434Z,18.13
2019-02-04T08:18:01.871Z,18.83
2019-02-04T08:20:31.467Z,17.70
2019-02-04T08:23:00.931Z,17.87
2019-02-04T08:25:30.397Z,15.17
2019-02-04T08:28:00.200Z,20.63
2019-02-04T08:30:32.459Z,18.90
2019-02-04T08:33:02.095Z,22.37
2019-02-04T08:35:31.755Z,19.93
2019-02-04T08:38:01.524Z,21.17
2019-02-04T08:40:31.274Z,19.13
2019-02-04T08:43:00.787Z,17.80
2019-02-04T08:45:30.289Z,21.10
2019-02-04T08:47:59.729Z,18.23
2019-02-04T08:50:29.461Z,20.17
2019-02-04T08:52:58.908Z,23.17
2019-02-04T08:55:28.385Z,22.30
2019-02-04T08:57:58.096Z,19.77
2019-02-04T09:00:27.698Z,18.53
2019-02-04T09:02:57.201Z,22.93
2019-02-04T09:05:26.745Z,23.63
2019-02-04T09:07:56.226Z,22.30
2019-02-04T09:10:28.713Z,19.70
2019-02-04T09:12:58.249Z,19.23
2019-02-04T09:15:27.976Z,24.13
2019-02-04T09:17:57.744Z,20.03
2019-02-04T09:20:27.322Z,20.17
2019-02-04T09:22:58.742Z,22.53
2019-02-04T09:25:28.422Z,24.77
2019-02-04T09:27:58.603Z,20.13
2019-02-04T09:30:28.604Z,20.13
2019-02-04T09:32:59.530Z,22.33
2019-02-04T09:35:29.050Z,18.73
2019-02-04T09:37:58.688Z,21.63
2019-02-04T09:40:33.728Z,22.10
2019-02-04T09:43:03.211Z,22.13
2019-02-04T09:45:33.585Z,23.77
2019-02-04T09:48:03.554Z,21.53
2019-02-04T09:50:38.735Z,17.97
2019-02-04T09:53:08.586Z,22.27
2019-02-04T09:55:39.076Z,21.37
2019-02-04T09:58:08.628Z,18.30
2019-02-04T10:00:38.504Z,20.93
2019-02-04T10:03:08.160Z,21.73
2019-02-04T10:05:38.434Z,22.27
2019-02-04T10:08:08.594Z,22.47
2019-02-04T10:10:37.948Z,21.23
2019-02-04T10:13:07.592Z,19.27
2019-02-04T10:15:39.793Z,17.57
2019-02-04T10:18:09.895Z,18.83
2019-02-04T10:20:39.719Z,16.47
2019-02-04T10:23:09.902Z,16.97
2019-02-04T10:25:42.082Z,17.83
2019-02-04T10:28:13.514Z,19.87
2019-02-04T10:30:43.315Z,15.23
2019-02-04T10:33:13.123Z,18.07
2019-02-04T10:35:42.738Z,20.20
2019-02-04T10:38:12.287Z,17.07
2019-02-04T10:40:41.680Z,17.90
2019-02-04T10:43:12.824Z,18.60
2019-02-04T10:45:42.221Z,16.87
2019-02-04T10:48:12.028Z,20.03
2019-02-04T10:50:46.150Z,18.83
2019-02-04T10:53:13.372Z,22.30
2019-02-04T10:55:43.002Z,15.80
2019-02-04T10:58:13.649Z,16.17
2019-02-04T11:00:43.330Z,16.13
2019-02-04T11:03:12.890Z,19.23
2019-02-04T11:05:43.563Z,17.47
2019-02-04T11:08:14.221Z,17.60
2019-02-04T11:10:43.810Z,15.37
2019-02-04T11:13:15.026Z,13.77
2019-02-04T11:15:45.119Z,17.17
2019-02-04T11:18:16.522Z,13.53
2019-02-04T11:20:57.237Z,18.23
2019-02-04T11:23:17.614Z,13.70
2019-02-04T11:25:47.522Z,15.70
2019-02-04T11:28:17.493Z,17.97
2019-02-04T11:30:49.822Z,12.87
2019-02-04T11:33:19.439Z,14.77
2019-02-04T11:35:48.823Z,13.60
2019-02-04T11:38:18.383Z,16.43
2019-02-04T11:40:49.614Z,13.90
2019-02-04T11:43:19.200Z,13.63
2019-02-04T11:45:48.677Z,12.03
2019-02-04T11:48:19.752Z,13.43
2019-02-04T11:50:50.368Z,13.67
2019-02-04T11:53:32.040Z,14.93
2019-02-04T11:55:51.099Z,14.70
2019-02-04T11:58:20.648Z,15.57
2019-02-04T12:00:50.050Z,13.67
2019-02-04T12:03:19.787Z,13.50
2019-02-04T12:05:49.262Z,13.60
2019-02-04T12:08:19.062Z,13.10
2019-02-04T12:10:54.062Z,13.93
2019-02-04T12:13:25.274Z,14.37
2019-02-04T12:15:55.978Z,13.97
2019-02-04T12:18:25.588Z,14.90
2019-02-04T12:20:54.954Z,12.13
2019-02-04T12:23:24.696Z,11.30
2019-02-04T12:25:54.169Z,13.83
2019-02-04T12:28:23.647Z,15.43
2019-02-04T12:30:53.110Z,13.23
2019-02-04T12:33:22.587Z,11.97
2019-02-04T12:35:52.123Z,12.20
2019-02-04T12:38:23.020Z,14.83
2019-02-04T12:40:52.569Z,13.73
2019-02-04T12:43:21.961Z,13.60
2019-02-04T12:45:51.616Z,13.97
2019-02-04T12:48:21.309Z,13.07
2019-02-04T12:50:50.925Z,14.00
2019-02-04T12:53:20.439Z,12.97
2019-02-04T12:55:51.568Z,14.07
2019-02-04T12:58:21.192Z,16.77
2019-02-04T13:00:50.643Z,13.60
2019-02-04T13:03:20.182Z,13.03
2019-02-04T13:05:52.175Z,17.80
2019-02-04T13:08:21.720Z,17.23
2019-02-04T13:10:51.301Z,17.73
2019-02-04T13:13:20.882Z,15.97
2019-02-04T13:15:51.352Z,15.10
2019-02-04T13:18:20.804Z,16.60
2019-02-04T13:20:50.287Z,11.10
2019-02-04T13:23:19.733Z,13.23
2019-02-04T13:25:49.110Z,14.73
2019-02-04T13:28:18.767Z,15.37
2019-02-04T13:30:48.277Z,13.70
2019-02-04T13:33:18.215Z,15.07
2019-02-04T13:35:47.824Z,14.70
2019-02-04T13:38:17.370Z,17.83
2019-02-04T13:40:46.826Z,15.00
2019-02-04T13:43:16.322Z,13.47
2019-02-04T13:45:45.928Z,11.23
2019-02-04T13:48:15.888Z,15.40
2019-02-04T13:50:45.407Z,14.40
2019-02-04T13:53:14.925Z,9.23
2019-02-04T13:55:44.616Z,11.10
2019-02-04T13:58:14.150Z,11.77
2019-02-04T14:00:43.613Z,10.50
2019-02-04T14:03:13.199Z,10.93
2019-02-04T14:05:42.802Z,11.60
2019-02-04T14:08:12.338Z,11.60
2019-02-04T14:10:45.943Z,10.60
2019-02-04T14:13:14.254Z,11.10
2019-02-04T14:15:44.007Z,13.63
2019-02-04T14:18:13.460Z,13.00
2019-02-04T14:20:43.104Z,10.80
2019-02-04T14:23:12.450Z,14.03
2019-02-04T14:25:41.959Z,12.77
2019-02-04T14:28:11.858Z,12.13
2019-02-04T14:30:41.410Z,10.67
2019-02-04T14:33:10.985Z,11.30
2019-02-04T14:35:40.738Z,9.80
2019-02-04T14:38:10.364Z,13.07
2019-02-04T14:40:40.054Z,10.57
2019-02-04T14:43:24.862Z,14.23
2019-02-04T14:46:00.236Z,10.93
2019-02-04T14:48:50.460Z,10.83
2019-02-04T14:51:24.697Z,11.33
2019-02-04T14:54:02.847Z,11.83
2019-02-04T14:56:56.155Z,10.37
2019-02-04T14:59:27.266Z,10.40
2019-02-04T15:02:17.782Z,15.20
2019-02-04T15:04:56.266Z,9.67
2019-02-04T15:07:40.870Z,9.97
2019-02-04T15:10:34.269Z,12.40
2019-02-04T15:13:09.579Z,14.50
2019-02-04T15:16:00.067Z,12.87
2019-02-04T15:18:41.764Z,20.57
2019-02-04T15:21:17.002Z,12.17
2019-02-04T15:24:10.500Z,13.40
2019-02-04T15:26:54.937Z,12.17
2019-02-04T15:29:27.532Z,14.63
2019-02-04T15:32:00.007Z,16.63
2019-02-04T15:34:38.536Z,16.20
2019-02-04T15:37:17.257Z,16.03
2019-02-04T15:39:52.538Z,16.37
2019-02-04T15:42:37.145Z,16.27
2019-02-04T15:45:34.883Z,19.07
2019-02-04T15:48:04.876Z,15.93
2019-02-04T15:50:43.476Z,14.67
2019-02-04T15:53:13.128Z,14.50
2019-02-04T15:55:42.577Z,13.33
2019-02-04T15:58:12.039Z,15.03
2019-02-04T16:00:41.470Z,13.67
2019-02-04T16:03:10.978Z,14.30
2019-02-04T16:05:40.344Z,10.87
2019-02-04T16:08:09.842Z,11.53
2019-02-04T16:10:39.223Z,14.53
2019-02-04T16:13:08.729Z,11.23
2019-02-04T16:15:38.291Z,12.57
2019-02-04T16:18:07.888Z,11.10
2019-02-04T16:20:37.398Z,13.17
2019-02-04T16:23:07.133Z,9.83
2019-02-04T16:25:36.727Z,8.93
2019-02-04T16:28:06.184Z,13.80
2019-02-04T16:30:37.509Z,9.67
2019-02-04T16:33:06.878Z,8.57
2019-02-04T16:35:36.574Z,9.00
2019-02-04T16:38:06.133Z,11.90
2019-02-04T16:40:35.545Z,10.13
2019-02-04T16:43:05.224Z,11.23
2019-02-04T16:45:35.109Z,7.57
2019-02-04T16:48:04.630Z,11.50
2019-02-04T16:50:34.245Z,8.53
2019-02-04T16:53:10.460Z,7.60
2019-02-04T16:55:35.188Z,9.07
2019-02-04T16:58:04.755Z,10.80
2019-02-04T17:00:34.333Z,6.33
2019-02-04T17:03:03.744Z,10.37
2019-02-04T17:05:33.295Z,11.00
2019-02-04T17:08:02.877Z,9.67
2019-02-04T17:10:32.373Z,10.83
2019-02-04T17:13:01.887Z,9.80
2019-02-04T17:15:31.399Z,8.67
2019-02-04T17:18:00.859Z,8.53
2019-02-04T17:20:32.635Z,9.13
2019-02-04T17:23:02.269Z,7.53
2019-02-04T17:25:32.925Z,8.07
2019-02-04T17:28:02.773Z,9.33
2019-02-04T17:30:32.255Z,9.47
2019-02-04T17:33:01.747Z,9.67
2019-02-04T17:35:31.297Z,8.67
2019-02-04T17:38:00.754Z,11.77
2019-02-04T17:40:30.383Z,10.70
2019-02-04T17:43:00.340Z,9.63
2019-02-04T17:45:29.869Z,8.17
2019-02-04T17:47:59.379Z,10.73
2019-02-04T17:50:28.853Z,10.37
2019-02-04T17:52:58.313Z,11.70
2019-02-04T17:55:29.381Z,11.47
2019-02-04T17:57:58.784Z,11.93
2019-02-04T18:00:32.668Z,12.27
2019-02-04T18:03:02.245Z,11.97
2019-02-04T18:05:31.698Z,10.50
2019-02-04T18:08:01.225Z,10.20
2019-02-04T18:10:30.927Z,10.60
2019-02-04T18:13:00.403Z,10.80
2019-02-04T18:15:29.921Z,11.07
2019-02-04T18:17:59.355Z,10.10
2019-02-04T18:20:28.755Z,10.63
2019-02-04T18:22:58.387Z,11.60
2019-02-04T18:25:28.081Z,9.97
2019-02-04T18:27:57.545Z,10.30
2019-02-04T18:30:27.375Z,8.43
2019-02-04T18:32:56.904Z,11.43
2019-02-04T18:35:26.804Z,15.53
2019-02-04T18:37:56.275Z,10.77
2019-02-04T18:40:25.821Z,12.03
2019-02-04T18:42:55.576Z,10.97
2019-02-04T18:45:30.589Z,13.20
2019-02-04T18:48:00.089Z,16.23
2019-02-04T18:50:30.219Z,12.93
2019-02-04T18:52:59.627Z,13.80
2019-02-04T18:55:33.666Z,14.20
2019-02-04T18:58:03.205Z,13.27
2019-02-04T19:00:34.157Z,15.27
2019-02-04T19:03:16.611Z,19.37
2019-02-04T19:05:36.321Z,16.60
2019-02-04T19:08:05.881Z,15.10
2019-02-04T19:10:35.482Z,17.43
2019-02-04T19:13:05.049Z,19.80
2019-02-04T19:15:34.509Z,17.67
2019-02-04T19:18:07.441Z,16.97
2019-02-04T19:20:36.852Z,18.77
2019-02-04T19:23:06.425Z,18.73
2019-02-04T19:25:35.941Z,20.27
2019-02-04T19:28:06.845Z,17.23
2019-02-04T19:30:45.779Z,17.10
2019-02-04T19:33:15.273Z,21.57
2019-02-04T19:35:44.757Z,17.50
2019-02-04T19:38:14.278Z,18.97
2019-02-04T19:40:43.802Z,17.53
2019-02-04T19:43:13.599Z,19.43
2019-02-04T19:45:43.061Z,17.30
2019-02-04T19:48:12.479Z,15.30
2019-02-04T19:50:41.981Z,19.63
2019-02-04T19:53:11.425Z,20.63
2019-02-04T19:55:40.891Z,19.03
2019-02-04T19:58:10.761Z,18.37
2019-02-04T20:00:40.161Z,17.23
2019-02-04T20:03:09.682Z,18.83
2019-02-04T20:05:39.163Z,20.83
2019-02-04T20:08:08.551Z,18.47
2019-02-04T20:10:38.055Z,15.20
2019-02-04T20:13:07.745Z,13.50
2019-02-04T20:15:37.209Z,21.33
2019-02-04T20:18:06.687Z,16.13
2019-02-04T20:20:36.274Z,15.33
2019-02-04T20:23:05.869Z,18.33
2019-02-04T20:25:35.875Z,16.83
2019-02-04T20:28:07.393Z,19.60
2019-02-04T20:30:45.742Z,20.03
2019-02-04T20:33:13.067Z,19.93
2019-02-04T20:35:42.573Z,17.63
2019-02-04T20:38:12.038Z,15.40
2019-02-04T20:40:41.609Z,20.40
2019-02-04T20:43:11.097Z,14.97
2019-02-04T20:45:40.621Z,14.70
2019-02-04T20:48:12.687Z,19.33
2019-02-04T20:50:44.794Z,15.20
2019-02-04T20:53:15.215Z,18.87
2019-02-04T20:55:45.034Z,14.87
2019-02-04T20:58:14.561Z,15.77
2019-02-04T21:00:44.006Z,15.83
2019-02-04T21:03:13.577Z,19.13
2019-02-04T21:05:43.080Z,14.40
2019-02-04T21:08:12.479Z,13.50
2019-02-04T21:10:41.944Z,19.27
2019-02-04T21:13:11.377Z,17.33
2019-02-04T21:15:40.796Z,15.33
2019-02-04T21:18:10.329Z,14.03
2019-02-04T21:20:39.780Z,18.80
2019-02-04T21:23:09.246Z,16.23
2019-02-04T21:25:38.736Z,13.87
2019-02-04T21:28:08.203Z,18.43
2019-02-04T21:30:39.907Z,14.80
2019-02-04T21:33:09.544Z,17.10
2019-02-04T21:35:39.133Z,16.53
2019-02-04T21:38:08.696Z,15.30
2019-02-04T21:40:38.115Z,15.73
2019-02-04T21:43:07.612Z,21.33
2019-02-04T21:45:37.016Z,17.03
2019-02-04T21:48:06.544Z,16.43
2019-02-04T21:50:36.222Z,16.67
2019-02-04T21:53:06.198Z,17.10
2019-02-04T21:55:35.642Z,17.17
2019-02-04T21:58:05.656Z,14.67
2019-02-04T22:00:37.098Z,18.03
2019-02-04T22:03:06.709Z,17.57
2019-02-04T22:05:36.318Z,16.97
2019-02-04T22:08:06.351Z,17.63
2019-02-04T22:10:35.788Z,16.20
2019-02-04T22:13:05.354Z,15.53
2019-02-04T22:15:35.208Z,19.10
2019-02-04T22:18:05.320Z,16.27
2019-02-04T22:20:35.172Z,17.23
2019-02-04T22:23:04.772Z,17.77
2019-02-04T22:25:34.154Z,17.33
2019-02-04T22:28:03.800Z,16.13
2019-02-04T22:30:33.400Z,21.13
2019-02-04T22:33:02.752Z,16.90
2019-02-04T22:35:32.234Z,17.37
2019-02-04T22:38:02.012Z,16.77
2019-02-04T22:40:31.454Z,16.83
2019-02-04T22:43:00.865Z,15.83
2019-02-04T22:45:30.256Z,15.97
2019-02-04T22:47:59.655Z,17.83
2019-02-04T22:50:30.596Z,15.43
2019-02-04T22:53:02.236Z,16.57
2019-02-04T22:55:32.493Z,15.03
2019-02-04T22:58:02.214Z,17.37
2019-02-04T23:00:52.976Z,15.50
2019-02-04T23:03:27.705Z,14.83
2019-02-04T23:05:57.159Z,17.40
2019-02-04T23:08:26.562Z,18.57
2019-02-04T23:10:56.091Z,15.00
2019-02-04T23:13:25.544Z,14.40
2019-02-04T23:15:55.276Z,13.23
2019-02-04T23:18:24.736Z,15.23
2019-02-04T23:20:54.126Z,14.93
2019-02-04T23:23:23.550Z,14.23
2019-02-04T23:25:54.674Z,14.90
2019-02-04T23:28:24.090Z,14.97
2019-02-04T23:30:53.594Z,15.90
2019-02-04T23:33:33.713Z,14.97
2019-02-04T23:35:54.180Z,14.63
2019-02-04T23:38:23.565Z,12.63
2019-02-04T23:40:54.806Z,15.37
2019-02-04T23:43:24.470Z,17.23
2019-02-04T23:45:53.942Z,15.80
2019-02-04T23:48:23.336Z,17.00
2019-02-04T23:50:53.637Z,16.73
2019-02-04T23:53:23.048Z,16.63
2019-02-04T23:55:54.626Z,17.17
2019-02-04T23:58:23.688Z,16.77
